sensor_id;sensor_type;location;lat;lon;timestamp;temperature;humidity
65598;SHT31;52267;51.984;20.956;2023-05-07T00:00:03;6.26;83.16
65598;SHT31;52267;51.984;20.956;2023-05-07T00:02:55;6.26;83.39
65598;SHT31;52267;51.984;20.956;2023-05-07T00:05:22;6.21;83.66
65598;SHT31;52267;51.984;20.956;2023-05-07T00:07:49;6.19;83.54
65598;SHT31;52267;51.984;20.956;2023-05-07T00:10:16;6.19;83.50
65598;SHT31;52267;51.984;20.956;2023-05-07T00:12:48;6.17;83.28
65598;SHT31;52267;51.984;20.956;2023-05-07T00:15:15;6.16;83.26
65598;SHT31;52267;51.984;20.956;2023-05-07T00:17:42;6.17;83.34
65598;SHT31;52267;51.984;20.956;2023-05-07T00:20:09;6.14;83.16
65598;SHT31;52267;51.984;20.956;2023-05-07T00:22:36;6.13;83.08
65598;SHT31;52267;51.984;20.956;2023-05-07T00:25:04;6.11;83.10
65598;SHT31;52267;51.984;20.956;2023-05-07T00:27:32;6.12;83.16
65598;SHT31;52267;51.984;20.956;2023-05-07T00:29:59;6.10;83.07
65598;SHT31;52267;51.984;20.956;2023-05-07T00:32:26;6.10;82.95
65598;SHT31;52267;51.984;20.956;2023-05-07T00:34:53;6.07;82.99
65598;SHT31;52267;51.984;20.956;2023-05-07T00:37:20;6.07;82.99
65598;SHT31;52267;51.984;20.956;2023-05-07T00:39:47;6.09;83.02
65598;SHT31;52267;51.984;20.956;2023-05-07T00:42:14;6.07;82.96
65598;SHT31;52267;51.984;20.956;2023-05-07T00:44:42;6.05;83.07
65598;SHT31;52267;51.984;20.956;2023-05-07T00:47:09;6.05;83.02
65598;SHT31;52267;51.984;20.956;2023-05-07T00:49:43;6.04;83.17
65598;SHT31;52267;51.984;20.956;2023-05-07T00:52:13;6.06;83.31
65598;SHT31;52267;51.984;20.956;2023-05-07T00:54:42;6.07;83.38
65598;SHT31;52267;51.984;20.956;2023-05-07T00:57:10;6.09;83.24
65598;SHT31;52267;51.984;20.956;2023-05-07T00:59:37;6.05;83.34
65598;SHT31;52267;51.984;20.956;2023-05-07T01:02:06;6.06;83.43
65598;SHT31;52267;51.984;20.956;2023-05-07T01:04:34;6.08;83.40
65598;SHT31;52267;51.984;20.956;2023-05-07T01:07:01;6.08;83.39
65598;SHT31;52267;51.984;20.956;2023-05-07T01:09:29;6.04;83.44
65598;SHT31;52267;51.984;20.956;2023-05-07T01:11:56;6.03;83.31
65598;SHT31;52267;51.984;20.956;2023-05-07T01:14:25;6.02;83.27
65598;SHT31;52267;51.984;20.956;2023-05-07T01:16:52;6.03;83.38
65598;SHT31;52267;51.984;20.956;2023-05-07T01:19:20;6.03;83.38
65598;SHT31;52267;51.984;20.956;2023-05-07T01:21:47;6.02;83.39
65598;SHT31;52267;51.984;20.956;2023-05-07T01:24:15;6.00;83.53
65598;SHT31;52267;51.984;20.956;2023-05-07T01:26:43;6.02;83.52
65598;SHT31;52267;51.984;20.956;2023-05-07T01:29:11;6.03;83.40
65598;SHT31;52267;51.984;20.956;2023-05-07T01:31:38;6.05;83.56
65598;SHT31;52267;51.984;20.956;2023-05-07T01:34:07;6.04;83.62
65598;SHT31;52267;51.984;20.956;2023-05-07T01:36:37;6.03;83.57
65598;SHT31;52267;51.984;20.956;2023-05-07T01:39:06;6.04;83.71
65598;SHT31;52267;51.984;20.956;2023-05-07T01:41:34;6.03;83.30
65598;SHT31;52267;51.984;20.956;2023-05-07T01:44:01;6.03;83.30
65598;SHT31;52267;51.984;20.956;2023-05-07T01:46:31;6.03;83.28
65598;SHT31;52267;51.984;20.956;2023-05-07T01:48:59;6.04;83.18
65598;SHT31;52267;51.984;20.956;2023-05-07T01:51:26;6.03;83.17
65598;SHT31;52267;51.984;20.956;2023-05-07T01:53:54;6.05;83.32
65598;SHT31;52267;51.984;20.956;2023-05-07T01:56:21;6.04;83.43
65598;SHT31;52267;51.984;20.956;2023-05-07T01:58:48;6.04;83.44
65598;SHT31;52267;51.984;20.956;2023-05-07T02:01:17;6.07;83.45
65598;SHT31;52267;51.984;20.956;2023-05-07T02:03:44;6.04;83.36
65598;SHT31;52267;51.984;20.956;2023-05-07T02:06:11;6.04;83.39
65598;SHT31;52267;51.984;20.956;2023-05-07T02:08:38;6.04;83.37
65598;SHT31;52267;51.984;20.956;2023-05-07T02:11:05;6.05;83.48
65598;SHT31;52267;51.984;20.956;2023-05-07T02:13:33;6.05;83.44
65598;SHT31;52267;51.984;20.956;2023-05-07T02:16:01;6.03;83.51
65598;SHT31;52267;51.984;20.956;2023-05-07T02:18:29;6.01;83.51
65598;SHT31;52267;51.984;20.956;2023-05-07T02:20:56;5.99;83.61
65598;SHT31;52267;51.984;20.956;2023-05-07T02:23:23;6.01;83.50
65598;SHT31;52267;51.984;20.956;2023-05-07T02:25:51;6.01;83.59
65598;SHT31;52267;51.984;20.956;2023-05-07T02:28:18;6.01;83.59
65598;SHT31;52267;51.984;20.956;2023-05-07T02:30:45;6.02;83.59
65598;SHT31;52267;51.984;20.956;2023-05-07T02:33:12;6.02;83.56
65598;SHT31;52267;51.984;20.956;2023-05-07T02:35:40;6.03;83.53
65598;SHT31;52267;51.984;20.956;2023-05-07T02:38:07;6.04;83.61
65598;SHT31;52267;51.984;20.956;2023-05-07T02:40:36;6.05;83.51
65598;SHT31;52267;51.984;20.956;2023-05-07T02:43:06;6.06;83.37
65598;SHT31;52267;51.984;20.956;2023-05-07T02:45:35;6.06;83.47
65598;SHT31;52267;51.984;20.956;2023-05-07T02:48:04;6.03;83.42
65598;SHT31;52267;51.984;20.956;2023-05-07T02:50:32;5.99;83.48
65598;SHT31;52267;51.984;20.956;2023-05-07T02:52:59;6.00;83.67
65598;SHT31;52267;51.984;20.956;2023-05-07T02:55:26;6.01;83.68
65598;SHT31;52267;51.984;20.956;2023-05-07T02:57:53;6.02;83.56
65598;SHT31;52267;51.984;20.956;2023-05-07T03:00:20;6.03;83.42
65598;SHT31;52267;51.984;20.956;2023-05-07T03:02:48;6.03;83.47
65598;SHT31;52267;51.984;20.956;2023-05-07T03:05:15;6.02;83.58
65598;SHT31;52267;51.984;20.956;2023-05-07T03:07:42;6.03;83.66
65598;SHT31;52267;51.984;20.956;2023-05-07T03:10:11;6.01;83.88
65598;SHT31;52267;51.984;20.956;2023-05-07T03:12:38;5.96;84.13
65598;SHT31;52267;51.984;20.956;2023-05-07T03:15:06;5.95;83.98
65598;SHT31;52267;51.984;20.956;2023-05-07T03:17:34;5.95;83.84
65598;SHT31;52267;51.984;20.956;2023-05-07T03:20:01;5.95;83.62
65598;SHT31;52267;51.984;20.956;2023-05-07T03:22:28;5.94;83.73
65598;SHT31;52267;51.984;20.956;2023-05-07T03:24:55;5.95;83.72
65598;SHT31;52267;51.984;20.956;2023-05-07T03:27:22;5.97;83.67
65598;SHT31;52267;51.984;20.956;2023-05-07T03:29:49;5.97;83.84
65598;SHT31;52267;51.984;20.956;2023-05-07T03:32:16;5.95;84.12
65598;SHT31;52267;51.984;20.956;2023-05-07T03:34:43;5.95;84.09
65598;SHT31;52267;51.984;20.956;2023-05-07T03:37:10;5.97;83.91
65598;SHT31;52267;51.984;20.956;2023-05-07T03:39:37;5.98;83.81
65598;SHT31;52267;51.984;20.956;2023-05-07T03:42:05;6.00;83.76
65598;SHT31;52267;51.984;20.956;2023-05-07T03:44:32;6.01;83.62
65598;SHT31;52267;51.984;20.956;2023-05-07T03:46:59;6.02;83.70
65598;SHT31;52267;51.984;20.956;2023-05-07T03:49:26;6.02;83.65
65598;SHT31;52267;51.984;20.956;2023-05-07T03:51:53;6.00;83.84
65598;SHT31;52267;51.984;20.956;2023-05-07T03:54:20;5.98;83.74
65598;SHT31;52267;51.984;20.956;2023-05-07T03:56:47;5.95;83.71
65598;SHT31;52267;51.984;20.956;2023-05-07T03:59:14;5.95;83.78
65598;SHT31;52267;51.984;20.956;2023-05-07T04:01:41;5.95;83.83
65598;SHT31;52267;51.984;20.956;2023-05-07T04:04:08;5.97;83.85
65598;SHT31;52267;51.984;20.956;2023-05-07T04:06:35;6.00;83.80
65598;SHT31;52267;51.984;20.956;2023-05-07T04:09:02;6.00;83.78
65598;SHT31;52267;51.984;20.956;2023-05-07T04:11:29;6.02;83.74
65598;SHT31;52267;51.984;20.956;2023-05-07T04:13:56;6.01;83.74
65598;SHT31;52267;51.984;20.956;2023-05-07T04:16:23;6.03;83.73
65598;SHT31;52267;51.984;20.956;2023-05-07T04:18:50;6.04;83.69
65598;SHT31;52267;51.984;20.956;2023-05-07T04:21:18;6.03;83.63
65598;SHT31;52267;51.984;20.956;2023-05-07T04:23:47;6.05;83.39
65598;SHT31;52267;51.984;20.956;2023-05-07T04:26:15;6.03;83.36
65598;SHT31;52267;51.984;20.956;2023-05-07T04:28:42;6.01;83.34
65598;SHT31;52267;51.984;20.956;2023-05-07T04:31:09;5.99;83.35
65598;SHT31;52267;51.984;20.956;2023-05-07T04:33:36;6.00;83.48
65598;SHT31;52267;51.984;20.956;2023-05-07T04:36:03;6.02;83.46
65598;SHT31;52267;51.984;20.956;2023-05-07T04:38:31;6.03;83.38
65598;SHT31;52267;51.984;20.956;2023-05-07T04:41:05;6.02;83.46
65598;SHT31;52267;51.984;20.956;2023-05-07T04:43:33;6.03;83.63
65598;SHT31;52267;51.984;20.956;2023-05-07T04:46:00;6.08;83.45
65598;SHT31;52267;51.984;20.956;2023-05-07T04:48:27;6.11;83.48
65598;SHT31;52267;51.984;20.956;2023-05-07T04:50:55;6.12;83.48
65598;SHT31;52267;51.984;20.956;2023-05-07T04:53:23;6.12;83.56
65598;SHT31;52267;51.984;20.956;2023-05-07T04:55:54;6.11;83.56
65598;SHT31;52267;51.984;20.956;2023-05-07T04:58:25;6.12;83.58
65598;SHT31;52267;51.984;20.956;2023-05-07T05:00:58;6.15;83.40
65598;SHT31;52267;51.984;20.956;2023-05-07T05:03:26;6.14;83.35
65598;SHT31;52267;51.984;20.956;2023-05-07T05:05:53;6.14;83.48
65598;SHT31;52267;51.984;20.956;2023-05-07T05:08:20;6.15;83.39
65598;SHT31;52267;51.984;20.956;2023-05-07T05:10:47;6.16;83.51
65598;SHT31;52267;51.984;20.956;2023-05-07T05:13:16;6.17;83.58
65598;SHT31;52267;51.984;20.956;2023-05-07T05:15:43;6.19;83.40
65598;SHT31;52267;51.984;20.956;2023-05-07T05:18:10;6.20;83.39
65598;SHT31;52267;51.984;20.956;2023-05-07T05:20:37;6.21;83.32
65598;SHT31;52267;51.984;20.956;2023-05-07T05:23:04;6.22;83.31
65598;SHT31;52267;51.984;20.956;2023-05-07T05:25:32;6.25;83.39
65598;SHT31;52267;51.984;20.956;2023-05-07T05:27:59;6.26;83.41
65598;SHT31;52267;51.984;20.956;2023-05-07T05:30:26;6.25;83.43
65598;SHT31;52267;51.984;20.956;2023-05-07T05:32:53;6.28;83.41
65598;SHT31;52267;51.984;20.956;2023-05-07T05:35:20;6.27;83.43
65598;SHT31;52267;51.984;20.956;2023-05-07T05:37:47;6.29;83.38
65598;SHT31;52267;51.984;20.956;2023-05-07T05:40:15;6.30;83.21
65598;SHT31;52267;51.984;20.956;2023-05-07T05:42:42;6.28;83.15
65598;SHT31;52267;51.984;20.956;2023-05-07T05:45:09;6.26;83.31
65598;SHT31;52267;51.984;20.956;2023-05-07T05:47:36;6.27;83.19
65598;SHT31;52267;51.984;20.956;2023-05-07T05:50:05;6.30;83.12
65598;SHT31;52267;51.984;20.956;2023-05-07T05:52:33;6.30;83.08
65598;SHT31;52267;51.984;20.956;2023-05-07T05:55:01;6.32;83.12
65598;SHT31;52267;51.984;20.956;2023-05-07T05:57:28;6.35;83.13
65598;SHT31;52267;51.984;20.956;2023-05-07T05:59:55;6.35;83.27
65598;SHT31;52267;51.984;20.956;2023-05-07T06:02:22;6.37;83.18
65598;SHT31;52267;51.984;20.956;2023-05-07T06:04:49;6.38;83.07
65598;SHT31;52267;51.984;20.956;2023-05-07T06:07:15;6.39;83.07
65598;SHT31;52267;51.984;20.956;2023-05-07T06:09:42;6.43;82.96
65598;SHT31;52267;51.984;20.956;2023-05-07T06:12:09;6.48;82.99
65598;SHT31;52267;51.984;20.956;2023-05-07T06:14:36;6.56;82.96
65598;SHT31;52267;51.984;20.956;2023-05-07T06:17:03;6.59;82.94
65598;SHT31;52267;51.984;20.956;2023-05-07T06:19:31;6.66;82.86
65598;SHT31;52267;51.984;20.956;2023-05-07T06:21:58;6.72;82.82
65598;SHT31;52267;51.984;20.956;2023-05-07T06:24:27;6.75;82.75
65598;SHT31;52267;51.984;20.956;2023-05-07T06:26:55;6.79;82.57
65598;SHT31;52267;51.984;20.956;2023-05-07T06:29:22;6.82;82.62
65598;SHT31;52267;51.984;20.956;2023-05-07T06:31:55;6.87;82.57
65598;SHT31;52267;51.984;20.956;2023-05-07T06:34:22;6.94;82.42
65598;SHT31;52267;51.984;20.956;2023-05-07T06:36:49;7.02;82.39
65598;SHT31;52267;51.984;20.956;2023-05-07T06:39:16;7.07;82.19
65598;SHT31;52267;51.984;20.956;2023-05-07T06:41:43;7.07;82.28
65598;SHT31;52267;51.984;20.956;2023-05-07T06:44:10;7.09;82.29
65598;SHT31;52267;51.984;20.956;2023-05-07T06:46:37;7.09;82.18
65598;SHT31;52267;51.984;20.956;2023-05-07T06:49:04;7.16;82.06
65598;SHT31;52267;51.984;20.956;2023-05-07T06:51:31;7.23;81.95
65598;SHT31;52267;51.984;20.956;2023-05-07T06:53:58;7.25;81.76
65598;SHT31;52267;51.984;20.956;2023-05-07T06:56:25;7.29;81.71
65598;SHT31;52267;51.984;20.956;2023-05-07T06:58:52;7.31;81.62
65598;SHT31;52267;51.984;20.956;2023-05-07T07:01:19;7.29;81.61
65598;SHT31;52267;51.984;20.956;2023-05-07T07:03:46;7.35;81.80
65598;SHT31;52267;51.984;20.956;2023-05-07T07:06:13;7.47;81.66
65598;SHT31;52267;51.984;20.956;2023-05-07T07:08:41;7.54;81.33
65598;SHT31;52267;51.984;20.956;2023-05-07T07:11:08;7.58;81.20
65598;SHT31;52267;51.984;20.956;2023-05-07T07:13:36;7.65;81.09
65598;SHT31;52267;51.984;20.956;2023-05-07T07:16:03;7.68;80.94
65598;SHT31;52267;51.984;20.956;2023-05-07T07:18:31;7.68;80.92
65598;SHT31;52267;51.984;20.956;2023-05-07T07:20:57;7.71;80.87
65598;SHT31;52267;51.984;20.956;2023-05-07T07:23:25;7.72;80.74
65598;SHT31;52267;51.984;20.956;2023-05-07T07:25:52;7.74;80.55
65598;SHT31;52267;51.984;20.956;2023-05-07T07:28:20;7.75;80.50
65598;SHT31;52267;51.984;20.956;2023-05-07T07:30:48;7.70;80.47
65598;SHT31;52267;51.984;20.956;2023-05-07T07:33:15;7.72;80.50
65598;SHT31;52267;51.984;20.956;2023-05-07T07:35:42;7.69;80.52
65598;SHT31;52267;51.984;20.956;2023-05-07T07:38:09;7.70;80.47
65598;SHT31;52267;51.984;20.956;2023-05-07T07:40:37;7.69;80.37
65598;SHT31;52267;51.984;20.956;2023-05-07T07:43:04;7.70;80.34
65598;SHT31;52267;51.984;20.956;2023-05-07T07:45:32;7.68;80.37
65598;SHT31;52267;51.984;20.956;2023-05-07T07:47:59;7.67;80.13
65598;SHT31;52267;51.984;20.956;2023-05-07T07:50:26;7.66;80.11
65598;SHT31;52267;51.984;20.956;2023-05-07T07:52:53;7.70;80.06
65598;SHT31;52267;51.984;20.956;2023-05-07T07:55:20;7.75;79.96
65598;SHT31;52267;51.984;20.956;2023-05-07T07:57:49;7.74;79.67
65598;SHT31;52267;51.984;20.956;2023-05-07T08:00:16;7.79;79.72
65598;SHT31;52267;51.984;20.956;2023-05-07T08:02:43;7.85;79.67
65598;SHT31;52267;51.984;20.956;2023-05-07T08:05:11;7.88;79.43
65598;SHT31;52267;51.984;20.956;2023-05-07T08:07:38;7.93;79.35
65598;SHT31;52267;51.984;20.956;2023-05-07T08:10:05;7.96;79.22
65598;SHT31;52267;51.984;20.956;2023-05-07T08:12:32;7.97;78.75
65598;SHT31;52267;51.984;20.956;2023-05-07T08:14:59;8.02;78.72
65598;SHT31;52267;51.984;20.956;2023-05-07T08:17:26;8.09;78.60
65598;SHT31;52267;51.984;20.956;2023-05-07T08:19:54;8.17;78.26
65598;SHT31;52267;51.984;20.956;2023-05-07T08:22:21;8.27;78.25
65598;SHT31;52267;51.984;20.956;2023-05-07T08:24:49;8.39;78.06
65598;SHT31;52267;51.984;20.956;2023-05-07T08:27:16;8.47;77.79
65598;SHT31;52267;51.984;20.956;2023-05-07T08:29:43;8.57;77.20
65598;SHT31;52267;51.984;20.956;2023-05-07T08:32:13;8.61;76.72
65598;SHT31;52267;51.984;20.956;2023-05-07T08:34:41;8.71;76.83
65598;SHT31;52267;51.984;20.956;2023-05-07T08:37:08;8.68;76.67
65598;SHT31;52267;51.984;20.956;2023-05-07T08:39:35;8.61;76.37
65598;SHT31;52267;51.984;20.956;2023-05-07T08:42:02;8.49;76.08
65598;SHT31;52267;51.984;20.956;2023-05-07T08:44:33;8.41;76.48
65598;SHT31;52267;51.984;20.956;2023-05-07T08:47:01;8.36;76.60
65598;SHT31;52267;51.984;20.956;2023-05-07T08:49:29;8.28;76.72
65598;SHT31;52267;51.984;20.956;2023-05-07T08:51:56;8.31;76.89
65598;SHT31;52267;51.984;20.956;2023-05-07T08:54:23;8.31;76.81
65598;SHT31;52267;51.984;20.956;2023-05-07T08:56:51;8.30;76.66
65598;SHT31;52267;51.984;20.956;2023-05-07T08:59:18;8.33;76.69
65598;SHT31;52267;51.984;20.956;2023-05-07T09:01:45;8.38;76.74
65598;SHT31;52267;51.984;20.956;2023-05-07T09:04:12;8.42;76.79
65598;SHT31;52267;51.984;20.956;2023-05-07T09:06:39;8.48;76.76
65598;SHT31;52267;51.984;20.956;2023-05-07T09:09:08;8.53;76.67
65598;SHT31;52267;51.984;20.956;2023-05-07T09:11:35;8.59;76.62
65598;SHT31;52267;51.984;20.956;2023-05-07T09:14:02;8.66;76.54
65598;SHT31;52267;51.984;20.956;2023-05-07T09:16:29;8.73;76.22
65598;SHT31;52267;51.984;20.956;2023-05-07T09:18:58;8.74;76.09
65598;SHT31;52267;51.984;20.956;2023-05-07T09:21:29;8.73;75.97
65598;SHT31;52267;51.984;20.956;2023-05-07T09:23:56;8.67;75.64
65598;SHT31;52267;51.984;20.956;2023-05-07T09:26:24;8.60;75.60
65598;SHT31;52267;51.984;20.956;2023-05-07T09:28:51;8.61;75.72
65598;SHT31;52267;51.984;20.956;2023-05-07T09:31:19;8.59;75.57
65598;SHT31;52267;51.984;20.956;2023-05-07T09:33:49;8.57;75.67
65598;SHT31;52267;51.984;20.956;2023-05-07T09:36:16;8.61;75.67
65598;SHT31;52267;51.984;20.956;2023-05-07T09:38:44;8.69;75.66
65598;SHT31;52267;51.984;20.956;2023-05-07T09:41:12;8.72;75.57
65598;SHT31;52267;51.984;20.956;2023-05-07T09:43:40;8.79;75.58
65598;SHT31;52267;51.984;20.956;2023-05-07T09:46:08;8.90;75.39
65598;SHT31;52267;51.984;20.956;2023-05-07T09:48:42;9.00;75.29
65598;SHT31;52267;51.984;20.956;2023-05-07T09:54:17;9.02;74.70
65598;SHT31;52267;51.984;20.956;2023-05-07T09:56:45;9.04;74.56
65598;SHT31;52267;51.984;20.956;2023-05-07T09:59:15;9.03;74.05
65598;SHT31;52267;51.984;20.956;2023-05-07T10:01:43;9.04;74.35
65598;SHT31;52267;51.984;20.956;2023-05-07T10:04:11;9.01;74.20
65598;SHT31;52267;51.984;20.956;2023-05-07T10:06:39;9.00;73.90
65598;SHT31;52267;51.984;20.956;2023-05-07T10:09:08;9.05;73.75
65598;SHT31;52267;51.984;20.956;2023-05-07T10:11:36;9.10;73.62
65598;SHT31;52267;51.984;20.956;2023-05-07T10:14:04;9.20;73.69
65598;SHT31;52267;51.984;20.956;2023-05-07T10:16:34;9.29;73.51
65598;SHT31;52267;51.984;20.956;2023-05-07T10:19:03;9.35;73.23
65598;SHT31;52267;51.984;20.956;2023-05-07T10:21:33;9.34;72.76
65598;SHT31;52267;51.984;20.956;2023-05-07T10:24:15;9.26;72.70
65598;SHT31;52267;51.984;20.956;2023-05-07T10:26:49;9.21;72.62
65598;SHT31;52267;51.984;20.956;2023-05-07T10:32:11;9.33;72.66
65598;SHT31;52267;51.984;20.956;2023-05-07T10:35:15;9.43;72.50
65598;SHT31;52267;51.984;20.956;2023-05-07T10:37:50;9.47;72.14
65598;SHT31;52267;51.984;20.956;2023-05-07T10:40:17;9.52;71.71
65598;SHT31;52267;51.984;20.956;2023-05-07T10:42:53;9.60;71.70
65598;SHT31;52267;51.984;20.956;2023-05-07T10:45:22;9.72;71.50
65598;SHT31;52267;51.984;20.956;2023-05-07T10:48:09;9.77;71.60
65598;SHT31;52267;51.984;20.956;2023-05-07T10:50:42;9.65;70.27
65598;SHT31;52267;51.984;20.956;2023-05-07T10:55:48;9.56;70.14
65598;SHT31;52267;51.984;20.956;2023-05-07T11:00:50;9.38;70.50
65598;SHT31;52267;51.984;20.956;2023-05-07T11:03:28;9.41;70.73
65598;SHT31;52267;51.984;20.956;2023-05-07T11:06:09;9.41;70.47
65598;SHT31;52267;51.984;20.956;2023-05-07T11:11:18;9.48;70.63
65598;SHT31;52267;51.984;20.956;2023-05-07T11:13:48;9.49;70.52
65598;SHT31;52267;51.984;20.956;2023-05-07T11:16:20;9.45;69.61
65598;SHT31;52267;51.984;20.956;2023-05-07T11:18:53;9.39;69.95
65598;SHT31;52267;51.984;20.956;2023-05-07T11:21:43;9.42;70.15
65598;SHT31;52267;51.984;20.956;2023-05-07T11:24:10;9.48;70.33
65598;SHT31;52267;51.984;20.956;2023-05-07T11:26:44;9.49;70.34
65598;SHT31;52267;51.984;20.956;2023-05-07T11:29:15;9.53;70.35
65598;SHT31;52267;51.984;20.956;2023-05-07T11:31:51;9.58;70.30
65598;SHT31;52267;51.984;20.956;2023-05-07T11:34:24;9.54;70.10
65598;SHT31;52267;51.984;20.956;2023-05-07T11:36:52;9.58;70.27
65598;SHT31;52267;51.984;20.956;2023-05-07T11:39:30;9.64;70.42
65598;SHT31;52267;51.984;20.956;2023-05-07T11:41:59;9.74;70.29
65598;SHT31;52267;51.984;20.956;2023-05-07T11:44:41;9.81;69.80
65598;SHT31;52267;51.984;20.956;2023-05-07T11:47:17;9.84;69.81
65598;SHT31;52267;51.984;20.956;2023-05-07T11:49:48;9.94;69.79
65598;SHT31;52267;51.984;20.956;2023-05-07T11:52:18;9.98;69.46
65598;SHT31;52267;51.984;20.956;2023-05-07T11:54:50;9.93;69.30
65598;SHT31;52267;51.984;20.956;2023-05-07T11:57:17;9.91;69.30
65598;SHT31;52267;51.984;20.956;2023-05-07T11:59:44;9.88;69.05
65598;SHT31;52267;51.984;20.956;2023-05-07T12:02:14;9.88;69.07
65598;SHT31;52267;51.984;20.956;2023-05-07T12:04:42;9.85;68.80
65598;SHT31;52267;51.984;20.956;2023-05-07T12:07:12;9.92;69.31
65598;SHT31;52267;51.984;20.956;2023-05-07T12:09:43;9.98;68.96
65598;SHT31;52267;51.984;20.956;2023-05-07T12:12:12;10.06;68.96
65598;SHT31;52267;51.984;20.956;2023-05-07T12:14:41;10.09;68.88
65598;SHT31;52267;51.984;20.956;2023-05-07T12:17:10;10.05;68.59
65598;SHT31;52267;51.984;20.956;2023-05-07T12:19:39;10.09;68.89
65598;SHT31;52267;51.984;20.956;2023-05-07T12:22:08;10.11;68.74
65598;SHT31;52267;51.984;20.956;2023-05-07T12:24:48;10.11;68.63
65598;SHT31;52267;51.984;20.956;2023-05-07T12:27:23;10.19;68.80
65598;SHT31;52267;51.984;20.956;2023-05-07T12:29:52;10.19;68.74
65598;SHT31;52267;51.984;20.956;2023-05-07T12:32:19;10.13;68.81
65598;SHT31;52267;51.984;20.956;2023-05-07T12:34:50;10.14;68.72
65598;SHT31;52267;51.984;20.956;2023-05-07T12:37:22;10.13;68.68
65598;SHT31;52267;51.984;20.956;2023-05-07T12:40:10;10.13;68.67
65598;SHT31;52267;51.984;20.956;2023-05-07T12:42:39;10.15;68.56
65598;SHT31;52267;51.984;20.956;2023-05-07T12:45:07;10.09;68.53
65598;SHT31;52267;51.984;20.956;2023-05-07T12:47:44;10.11;68.41
65598;SHT31;52267;51.984;20.956;2023-05-07T12:50:15;10.20;68.31
65598;SHT31;52267;51.984;20.956;2023-05-07T12:52:43;10.30;68.11
65598;SHT31;52267;51.984;20.956;2023-05-07T12:55:12;10.38;68.08
65598;SHT31;52267;51.984;20.956;2023-05-07T12:57:42;10.50;68.20
65598;SHT31;52267;51.984;20.956;2023-05-07T13:00:14;10.70;67.97
65598;SHT31;52267;51.984;20.956;2023-05-07T13:02:42;10.88;67.50
65598;SHT31;52267;51.984;20.956;2023-05-07T13:05:10;11.05;67.41
65598;SHT31;52267;51.984;20.956;2023-05-07T13:07:37;11.14;66.86
65598;SHT31;52267;51.984;20.956;2023-05-07T13:10:05;11.23;66.61
65598;SHT31;52267;51.984;20.956;2023-05-07T13:12:33;11.27;65.98
65598;SHT31;52267;51.984;20.956;2023-05-07T13:15:00;11.08;65.27
65598;SHT31;52267;51.984;20.956;2023-05-07T13:17:27;10.98;65.81
65598;SHT31;52267;51.984;20.956;2023-05-07T13:19:54;10.99;66.15
65598;SHT31;52267;51.984;20.956;2023-05-07T13:22:21;11.01;65.12
65598;SHT31;52267;51.984;20.956;2023-05-07T13:24:48;11.12;65.83
65598;SHT31;52267;51.984;20.956;2023-05-07T13:27:15;11.13;65.57
65598;SHT31;52267;51.984;20.956;2023-05-07T13:29:42;11.14;65.49
65598;SHT31;52267;51.984;20.956;2023-05-07T13:32:09;11.14;65.41
65598;SHT31;52267;51.984;20.956;2023-05-07T13:34:36;11.17;65.32
65598;SHT31;52267;51.984;20.956;2023-05-07T13:37:03;11.15;65.47
65598;SHT31;52267;51.984;20.956;2023-05-07T13:39:30;11.16;65.42
65598;SHT31;52267;51.984;20.956;2023-05-07T13:41:58;11.21;65.04
65598;SHT31;52267;51.984;20.956;2023-05-07T13:44:25;11.17;65.24
65598;SHT31;52267;51.984;20.956;2023-05-07T13:46:52;11.12;65.20
65598;SHT31;52267;51.984;20.956;2023-05-07T13:49:19;10.97;65.19
65598;SHT31;52267;51.984;20.956;2023-05-07T13:51:46;10.87;65.42
65598;SHT31;52267;51.984;20.956;2023-05-07T13:54:13;10.84;65.65
65598;SHT31;52267;51.984;20.956;2023-05-07T13:56:41;10.84;65.46
65598;SHT31;52267;51.984;20.956;2023-05-07T13:59:08;10.88;65.60
65598;SHT31;52267;51.984;20.956;2023-05-07T14:01:35;10.90;65.40
65598;SHT31;52267;51.984;20.956;2023-05-07T14:04:02;10.81;65.33
65598;SHT31;52267;51.984;20.956;2023-05-07T14:06:29;10.76;65.72
65598;SHT31;52267;51.984;20.956;2023-05-07T14:08:56;10.69;65.74
65598;SHT31;52267;51.984;20.956;2023-05-07T14:11:24;10.65;65.75
65598;SHT31;52267;51.984;20.956;2023-05-07T14:13:51;10.63;65.76
65598;SHT31;52267;51.984;20.956;2023-05-07T14:16:21;10.64;65.41
65598;SHT31;52267;51.984;20.956;2023-05-07T14:18:48;10.76;65.64
65598;SHT31;52267;51.984;20.956;2023-05-07T14:21:15;10.86;65.79
65598;SHT31;52267;51.984;20.956;2023-05-07T14:23:42;10.95;65.78
65598;SHT31;52267;51.984;20.956;2023-05-07T14:26:09;11.00;65.53
65598;SHT31;52267;51.984;20.956;2023-05-07T14:28:36;11.01;65.53
65598;SHT31;52267;51.984;20.956;2023-05-07T14:31:05;10.99;65.33
65598;SHT31;52267;51.984;20.956;2023-05-07T14:33:32;11.00;65.25
65598;SHT31;52267;51.984;20.956;2023-05-07T14:36:00;10.98;65.61
65598;SHT31;52267;51.984;20.956;2023-05-07T14:38:27;10.90;65.50
65598;SHT31;52267;51.984;20.956;2023-05-07T14:40:54;10.83;65.64
65598;SHT31;52267;51.984;20.956;2023-05-07T14:43:22;10.75;65.17
65598;SHT31;52267;51.984;20.956;2023-05-07T14:45:49;10.72;65.50
65598;SHT31;52267;51.984;20.956;2023-05-07T14:48:16;10.75;65.62
65598;SHT31;52267;51.984;20.956;2023-05-07T14:50:46;10.85;65.56
65598;SHT31;52267;51.984;20.956;2023-05-07T14:53:15;10.94;65.28
65598;SHT31;52267;51.984;20.956;2023-05-07T14:55:42;10.95;64.90
65598;SHT31;52267;51.984;20.956;2023-05-07T14:58:10;11.26;65.22
65598;SHT31;52267;51.984;20.956;2023-05-07T15:00:37;11.55;64.71
65598;SHT31;52267;51.984;20.956;2023-05-07T15:03:09;11.82;64.17
65598;SHT31;52267;51.984;20.956;2023-05-07T15:05:37;12.07;63.22
65598;SHT31;52267;51.984;20.956;2023-05-07T15:08:04;12.35;63.34
65598;SHT31;52267;51.984;20.956;2023-05-07T15:10:34;12.59;61.88
65598;SHT31;52267;51.984;20.956;2023-05-07T15:13:07;12.45;61.91
65598;SHT31;52267;51.984;20.956;2023-05-07T15:15:38;12.33;62.29
65598;SHT31;52267;51.984;20.956;2023-05-07T15:18:06;12.17;61.69
65598;SHT31;52267;51.984;20.956;2023-05-07T15:20:33;11.97;61.66
65598;SHT31;52267;51.984;20.956;2023-05-07T15:23:00;11.86;62.33
65598;SHT31;52267;51.984;20.956;2023-05-07T15:25:27;11.80;62.62
65598;SHT31;52267;51.984;20.956;2023-05-07T15:27:54;11.93;62.35
65598;SHT31;52267;51.984;20.956;2023-05-07T15:30:22;12.07;61.79
65598;SHT31;52267;51.984;20.956;2023-05-07T15:32:49;12.20;61.61
65598;SHT31;52267;51.984;20.956;2023-05-07T15:35:17;12.39;61.86
65598;SHT31;52267;51.984;20.956;2023-05-07T15:37:48;12.45;59.76
65598;SHT31;52267;51.984;20.956;2023-05-07T15:40:16;12.50;60.85
65598;SHT31;52267;51.984;20.956;2023-05-07T15:42:46;12.58;60.87
65598;SHT31;52267;51.984;20.956;2023-05-07T15:45:13;12.63;61.22
65598;SHT31;52267;51.984;20.956;2023-05-07T15:47:40;12.70;61.31